sensor_id;sensor_type;location;lat;lon;timestamp;P1;durP1;ratioP1;P2;durP2;ratioP2
32096;SDS011;18610;49.916;8.284;2023-05-20T00:00:24;5.30;;;2.70;;
32096;SDS011;18610;49.916;8.284;2023-05-20T00:02:50;5.82;;;2.70;;
32096;SDS011;18610;49.916;8.284;2023-05-20T00:05:17;3.00;;;2.13;;
32096;SDS011;18610;49.916;8.284;2023-05-20T00:07:44;3.17;;;2.45;;
32096;SDS011;18610;49.916;8.284;2023-05-20T00:10:12;8.60;;;2.90;;
32096;SDS011;18610;49.916;8.284;2023-05-20T00:12:39;15.15;;;2.53;;
32096;SDS011;18610;49.916;8.284;2023-05-20T00:15:07;4.07;;;2.38;;
32096;SDS011;18610;49.916;8.284;2023-05-20T00:17:36;11.18;;;2.78;;
32096;SDS011;18610;49.916;8.284;2023-05-20T00:20:02;9.35;;;2.92;;
32096;SDS011;18610;49.916;8.284;2023-05-20T00:22:30;4.07;;;2.30;;
32096;SDS011;18610;49.916;8.284;2023-05-20T00:24:57;6.00;;;2.45;;
32096;SDS011;18610;49.916;8.284;2023-05-20T00:27:25;5.80;;;2.78;;
32096;SDS011;18610;49.916;8.284;2023-05-20T00:29:52;5.50;;;2.38;;
32096;SDS011;18610;49.916;8.284;2023-05-20T00:32:19;7.03;;;2.33;;
32096;SDS011;18610;49.916;8.284;2023-05-20T00:34:54;3.65;;;2.33;;
32096;SDS011;18610;49.916;8.284;2023-05-20T00:37:21;9.88;;;3.20;;
32096;SDS011;18610;49.916;8.284;2023-05-20T00:39:47;8.75;;;2.47;;
32096;SDS011;18610;49.916;8.284;2023-05-20T00:42:18;8.80;;;2.55;;
32096;SDS011;18610;49.916;8.284;2023-05-20T00:44:46;11.38;;;2.60;;
32096;SDS011;18610;49.916;8.284;2023-05-20T00:47:13;8.27;;;2.53;;
32096;SDS011;18610;49.916;8.284;2023-05-20T00:49:41;6.15;;;2.63;;
32096;SDS011;18610;49.916;8.284;2023-05-20T00:52:08;3.83;;;2.42;;
32096;SDS011;18610;49.916;8.284;2023-05-20T00:54:35;7.80;;;2.88;;
32096;SDS011;18610;49.916;8.284;2023-05-20T00:57:02;4.13;;;2.35;;
32096;SDS011;18610;49.916;8.284;2023-05-20T00:59:30;4.38;;;2.40;;
32096;SDS011;18610;49.916;8.284;2023-05-20T01:01:59;4.05;;;2.58;;
32096;SDS011;18610;49.916;8.284;2023-05-20T01:04:26;8.20;;;3.15;;
32096;SDS011;18610;49.916;8.284;2023-05-20T01:06:53;4.53;;;2.60;;
32096;SDS011;18610;49.916;8.284;2023-05-20T01:09:21;5.10;;;2.85;;
32096;SDS011;18610;49.916;8.284;2023-05-20T01:11:49;9.45;;;2.97;;
32096;SDS011;18610;49.916;8.284;2023-05-20T01:14:21;11.82;;;2.63;;
32096;SDS011;18610;49.916;8.284;2023-05-20T01:16:51;3.85;;;2.30;;
32096;SDS011;18610;49.916;8.284;2023-05-20T01:19:25;15.32;;;2.80;;
32096;SDS011;18610;49.916;8.284;2023-05-20T01:21:57;8.98;;;3.30;;
32096;SDS011;18610;49.916;8.284;2023-05-20T01:24:27;4.20;;;2.83;;
32096;SDS011;18610;49.916;8.284;2023-05-20T01:26:54;5.43;;;2.88;;
32096;SDS011;18610;49.916;8.284;2023-05-20T01:29:22;3.22;;;2.42;;
32096;SDS011;18610;49.916;8.284;2023-05-20T01:31:48;4.97;;;2.65;;
32096;SDS011;18610;49.916;8.284;2023-05-20T01:34:16;5.82;;;2.92;;
32096;SDS011;18610;49.916;8.284;2023-05-20T01:36:44;6.13;;;2.85;;
32096;SDS011;18610;49.916;8.284;2023-05-20T01:39:11;6.57;;;3.03;;
32096;SDS011;18610;49.916;8.284;2023-05-20T01:41:40;7.30;;;2.92;;
32096;SDS011;18610;49.916;8.284;2023-05-20T01:44:07;10.52;;;3.05;;
32096;SDS011;18610;49.916;8.284;2023-05-20T01:46:33;9.93;;;2.80;;
32096;SDS011;18610;49.916;8.284;2023-05-20T01:49:00;7.93;;;3.00;;
32096;SDS011;18610;49.916;8.284;2023-05-20T01:51:27;8.80;;;3.03;;
32096;SDS011;18610;49.916;8.284;2023-05-20T01:53:55;5.43;;;3.05;;
32096;SDS011;18610;49.916;8.284;2023-05-20T01:56:21;10.18;;;2.88;;
32096;SDS011;18610;49.916;8.284;2023-05-20T01:58:49;8.38;;;3.25;;
32096;SDS011;18610;49.916;8.284;2023-05-20T02:01:16;5.55;;;3.25;;
32096;SDS011;18610;49.916;8.284;2023-05-20T02:03:43;8.57;;;3.30;;
32096;SDS011;18610;49.916;8.284;2023-05-20T02:06:09;11.77;;;3.00;;
32096;SDS011;18610;49.916;8.284;2023-05-20T02:08:36;10.73;;;3.28;;
32096;SDS011;18610;49.916;8.284;2023-05-20T02:11:03;5.30;;;3.00;;
32096;SDS011;18610;49.916;8.284;2023-05-20T02:13:30;8.05;;;3.20;;
32096;SDS011;18610;49.916;8.284;2023-05-20T02:15:58;7.45;;;3.75;;
32096;SDS011;18610;49.916;8.284;2023-05-20T02:18:24;7.28;;;3.33;;
32096;SDS011;18610;49.916;8.284;2023-05-20T02:20:51;8.23;;;3.95;;
32096;SDS011;18610;49.916;8.284;2023-05-20T02:23:18;8.80;;;2.72;;
32096;SDS011;18610;49.916;8.284;2023-05-20T02:25:45;11.30;;;3.08;;
32096;SDS011;18610;49.916;8.284;2023-05-20T02:28:11;14.55;;;3.53;;
32096;SDS011;18610;49.916;8.284;2023-05-20T02:30:39;9.43;;;3.28;;
32096;SDS011;18610;49.916;8.284;2023-05-20T02:33:07;9.27;;;2.90;;
32096;SDS011;18610;49.916;8.284;2023-05-20T02:35:34;11.25;;;3.30;;
32096;SDS011;18610;49.916;8.284;2023-05-20T02:38:01;7.47;;;3.58;;
32096;SDS011;18610;49.916;8.284;2023-05-20T02:40:28;6.25;;;3.03;;
32096;SDS011;18610;49.916;8.284;2023-05-20T02:42:54;9.82;;;3.03;;
32096;SDS011;18610;49.916;8.284;2023-05-20T02:45:21;3.83;;;3.13;;
32096;SDS011;18610;49.916;8.284;2023-05-20T02:47:48;9.77;;;3.28;;
32096;SDS011;18610;49.916;8.284;2023-05-20T02:50:16;10.55;;;3.58;;
32096;SDS011;18610;49.916;8.284;2023-05-20T02:52:43;7.93;;;3.60;;
32096;SDS011;18610;49.916;8.284;2023-05-20T02:55:10;6.90;;;3.67;;
32096;SDS011;18610;49.916;8.284;2023-05-20T02:57:37;5.18;;;3.60;;
32096;SDS011;18610;49.916;8.284;2023-05-20T03:00:04;10.05;;;4.13;;
32096;SDS011;18610;49.916;8.284;2023-05-20T03:02:35;7.90;;;3.55;;
32096;SDS011;18610;49.916;8.284;2023-05-20T03:05:02;5.95;;;3.65;;
32096;SDS011;18610;49.916;8.284;2023-05-20T03:07:32;5.97;;;3.33;;
32096;SDS011;18610;49.916;8.284;2023-05-20T03:10:00;5.72;;;3.60;;
32096;SDS011;18610;49.916;8.284;2023-05-20T03:12:29;11.48;;;3.33;;
32096;SDS011;18610;49.916;8.284;2023-05-20T03:14:56;6.82;;;3.80;;
32096;SDS011;18610;49.916;8.284;2023-05-20T03:17:23;9.10;;;4.32;;
32096;SDS011;18610;49.916;8.284;2023-05-20T03:19:50;6.35;;;3.22;;
32096;SDS011;18610;49.916;8.284;2023-05-20T03:22:16;6.72;;;3.78;;
32096;SDS011;18610;49.916;8.284;2023-05-20T03:24:44;5.20;;;3.25;;
32096;SDS011;18610;49.916;8.284;2023-05-20T03:27:12;6.63;;;3.65;;
32096;SDS011;18610;49.916;8.284;2023-05-20T03:29:38;5.20;;;3.55;;
32096;SDS011;18610;49.916;8.284;2023-05-20T03:32:05;8.57;;;3.58;;
32096;SDS011;18610;49.916;8.284;2023-05-20T03:34:32;3.78;;;2.95;;
32096;SDS011;18610;49.916;8.284;2023-05-20T03:36:59;5.90;;;3.38;;
32096;SDS011;18610;49.916;8.284;2023-05-20T03:39:26;6.30;;;3.83;;
32096;SDS011;18610;49.916;8.284;2023-05-20T03:41:54;9.43;;;3.85;;
32096;SDS011;18610;49.916;8.284;2023-05-20T03:44:21;7.82;;;3.58;;
32096;SDS011;18610;49.916;8.284;2023-05-20T03:46:47;6.05;;;4.13;;
32096;SDS011;18610;49.916;8.284;2023-05-20T03:49:14;11.13;;;3.53;;
32096;SDS011;18610;49.916;8.284;2023-05-20T03:51:41;8.25;;;3.50;;
32096;SDS011;18610;49.916;8.284;2023-05-20T03:54:08;8.13;;;3.17;;
32096;SDS011;18610;49.916;8.284;2023-05-20T03:56:34;8.93;;;3.55;;
32096;SDS011;18610;49.916;8.284;2023-05-20T03:59:02;7.03;;;3.95;;
32096;SDS011;18610;49.916;8.284;2023-05-20T04:01:29;9.15;;;3.50;;
32096;SDS011;18610;49.916;8.284;2023-05-20T04:03:56;14.88;;;3.97;;
32096;SDS011;18610;49.916;8.284;2023-05-20T04:06:22;9.52;;;4.43;;
32096;SDS011;18610;49.916;8.284;2023-05-20T04:08:50;11.20;;;4.78;;
32096;SDS011;18610;49.916;8.284;2023-05-20T04:11:18;15.00;;;4.72;;
32096;SDS011;18610;49.916;8.284;2023-05-20T04:13:45;11.05;;;4.00;;
32096;SDS011;18610;49.916;8.284;2023-05-20T04:16:13;7.22;;;3.85;;
32096;SDS011;18610;49.916;8.284;2023-05-20T04:18:40;10.13;;;4.38;;
32096;SDS011;18610;49.916;8.284;2023-05-20T04:21:09;17.45;;;4.97;;
32096;SDS011;18610;49.916;8.284;2023-05-20T04:23:36;8.55;;;3.80;;
32096;SDS011;18610;49.916;8.284;2023-05-20T04:26:03;6.72;;;3.65;;
32096;SDS011;18610;49.916;8.284;2023-05-20T04:28:30;8.13;;;3.75;;
32096;SDS011;18610;49.916;8.284;2023-05-20T04:30:57;6.20;;;3.75;;
32096;SDS011;18610;49.916;8.284;2023-05-20T04:33:25;4.65;;;3.30;;
32096;SDS011;18610;49.916;8.284;2023-05-20T04:35:52;4.90;;;3.65;;
32096;SDS011;18610;49.916;8.284;2023-05-20T04:38:22;7.00;;;4.15;;
32096;SDS011;18610;49.916;8.284;2023-05-20T04:40:53;5.20;;;3.90;;
32096;SDS011;18610;49.916;8.284;2023-05-20T04:43:21;5.78;;;3.92;;
32096;SDS011;18610;49.916;8.284;2023-05-20T04:45:49;5.53;;;4.15;;
32096;SDS011;18610;49.916;8.284;2023-05-20T04:48:17;14.45;;;3.80;;
32096;SDS011;18610;49.916;8.284;2023-05-20T04:50:45;6.93;;;3.78;;
32096;SDS011;18610;49.916;8.284;2023-05-20T04:53:13;5.13;;;3.15;;
32096;SDS011;18610;49.916;8.284;2023-05-20T04:55:40;8.27;;;3.80;;
32096;SDS011;18610;49.916;8.284;2023-05-20T04:58:07;4.25;;;3.33;;
32096;SDS011;18610;49.916;8.284;2023-05-20T05:00:39;12.93;;;4.20;;
32096;SDS011;18610;49.916;8.284;2023-05-20T05:03:05;7.13;;;3.58;;
32096;SDS011;18610;49.916;8.284;2023-05-20T05:05:33;7.15;;;3.63;;
32096;SDS011;18610;49.916;8.284;2023-05-20T05:08:02;6.57;;;3.80;;
32096;SDS011;18610;49.916;8.284;2023-05-20T05:10:28;5.25;;;3.38;;
32096;SDS011;18610;49.916;8.284;2023-05-20T05:12:55;7.28;;;4.10;;
32096;SDS011;18610;49.916;8.284;2023-05-20T05:15:22;8.88;;;4.53;;
32096;SDS011;18610;49.916;8.284;2023-05-20T05:17:49;9.02;;;4.43;;
32096;SDS011;18610;49.916;8.284;2023-05-20T05:20:16;8.43;;;4.25;;
32096;SDS011;18610;49.916;8.284;2023-05-20T05:22:43;5.72;;;4.05;;
32096;SDS011;18610;49.916;8.284;2023-05-20T05:25:11;10.75;;;4.43;;
32096;SDS011;18610;49.916;8.284;2023-05-20T05:27:38;6.03;;;3.65;;
32096;SDS011;18610;49.916;8.284;2023-05-20T05:30:06;6.35;;;3.75;;
32096;SDS011;18610;49.916;8.284;2023-05-20T05:32:33;5.97;;;3.88;;
32096;SDS011;18610;49.916;8.284;2023-05-20T05:35:01;6.30;;;3.97;;
32096;SDS011;18610;49.916;8.284;2023-05-20T05:37:28;7.40;;;4.38;;
32096;SDS011;18610;49.916;8.284;2023-05-20T05:39:54;6.65;;;4.07;;
32096;SDS011;18610;49.916;8.284;2023-05-20T05:42:23;6.25;;;3.78;;
32096;SDS011;18610;49.916;8.284;2023-05-20T05:44:49;6.20;;;3.95;;
32096;SDS011;18610;49.916;8.284;2023-05-20T05:47:16;15.68;;;4.80;;
32096;SDS011;18610;49.916;8.284;2023-05-20T05:49:44;8.43;;;4.03;;
32096;SDS011;18610;49.916;8.284;2023-05-20T05:52:11;9.10;;;4.40;;
32096;SDS011;18610;49.916;8.284;2023-05-20T05:54:38;6.57;;;4.55;;
32096;SDS011;18610;49.916;8.284;2023-05-20T05:57:04;5.65;;;3.88;;
32096;SDS011;18610;49.916;8.284;2023-05-20T05:59:33;11.40;;;5.03;;
32096;SDS011;18610;49.916;8.284;2023-05-20T06:02:00;7.45;;;4.07;;
32096;SDS011;18610;49.916;8.284;2023-05-20T06:04:26;7.78;;;3.90;;
32096;SDS011;18610;49.916;8.284;2023-05-20T06:06:53;7.05;;;4.20;;
32096;SDS011;18610;49.916;8.284;2023-05-20T06:09:20;5.88;;;4.13;;
32096;SDS011;18610;49.916;8.284;2023-05-20T06:11:46;7.80;;;4.07;;
32096;SDS011;18610;49.916;8.284;2023-05-20T06:14:13;6.72;;;4.70;;
32096;SDS011;18610;49.916;8.284;2023-05-20T06:16:41;10.65;;;4.65;;
32096;SDS011;18610;49.916;8.284;2023-05-20T06:19:08;10.30;;;3.63;;
32096;SDS011;18610;49.916;8.284;2023-05-20T06:21:34;6.45;;;3.83;;
32096;SDS011;18610;49.916;8.284;2023-05-20T06:24:02;7.10;;;4.22;;
32096;SDS011;18610;49.916;8.284;2023-05-20T06:26:29;7.07;;;4.20;;
32096;SDS011;18610;49.916;8.284;2023-05-20T06:28:56;4.05;;;3.28;;
32096;SDS011;18610;49.916;8.284;2023-05-20T06:31:23;6.85;;;4.82;;
32096;SDS011;18610;49.916;8.284;2023-05-20T06:33:51;9.27;;;4.43;;
32096;SDS011;18610;49.916;8.284;2023-05-20T06:36:17;10.05;;;4.88;;
32096;SDS011;18610;49.916;8.284;2023-05-20T06:38:44;9.13;;;5.03;;
32096;SDS011;18610;49.916;8.284;2023-05-20T06:41:11;11.00;;;4.78;;
32096;SDS011;18610;49.916;8.284;2023-05-20T06:43:37;10.50;;;4.95;;
32096;SDS011;18610;49.916;8.284;2023-05-20T06:46:04;8.05;;;4.72;;
32096;SDS011;18610;49.916;8.284;2023-05-20T06:48:31;7.57;;;4.35;;
32096;SDS011;18610;49.916;8.284;2023-05-20T06:50:59;15.13;;;4.78;;
32096;SDS011;18610;49.916;8.284;2023-05-20T06:53:26;6.93;;;4.80;;
32096;SDS011;18610;49.916;8.284;2023-05-20T06:55:53;8.70;;;4.63;;
32096;SDS011;18610;49.916;8.284;2023-05-20T06:58:20;12.35;;;4.57;;
32096;SDS011;18610;49.916;8.284;2023-05-20T07:00:47;13.68;;;5.60;;
32096;SDS011;18610;49.916;8.284;2023-05-20T07:03:14;7.75;;;4.78;;
32096;SDS011;18610;49.916;8.284;2023-05-20T07:05:40;14.25;;;4.75;;
32096;SDS011;18610;49.916;8.284;2023-05-20T07:08:08;9.82;;;5.55;;
32096;SDS011;18610;49.916;8.284;2023-05-20T07:10:35;11.43;;;4.95;;
32096;SDS011;18610;49.916;8.284;2023-05-20T07:13:02;10.45;;;5.00;;
32096;SDS011;18610;49.916;8.284;2023-05-20T07:15:29;9.10;;;5.28;;
32096;SDS011;18610;49.916;8.284;2023-05-20T07:17:56;8.93;;;4.45;;
32096;SDS011;18610;49.916;8.284;2023-05-20T07:20:23;6.88;;;4.30;;
32096;SDS011;18610;49.916;8.284;2023-05-20T07:22:49;10.77;;;4.97;;
32096;SDS011;18610;49.916;8.284;2023-05-20T07:25:18;9.77;;;5.15;;
32096;SDS011;18610;49.916;8.284;2023-05-20T07:27:44;8.05;;;4.43;;
32096;SDS011;18610;49.916;8.284;2023-05-20T07:30:11;11.85;;;5.40;;
32096;SDS011;18610;49.916;8.284;2023-05-20T07:32:38;9.30;;;5.15;;
32096;SDS011;18610;49.916;8.284;2023-05-20T07:35:05;9.48;;;4.78;;
32096;SDS011;18610;49.916;8.284;2023-05-20T07:37:32;9.80;;;5.25;;
32096;SDS011;18610;49.916;8.284;2023-05-20T07:39:59;7.35;;;5.53;;
32096;SDS011;18610;49.916;8.284;2023-05-20T07:42:27;8.23;;;5.18;;
32096;SDS011;18610;49.916;8.284;2023-05-20T07:44:54;6.95;;;4.85;;
32096;SDS011;18610;49.916;8.284;2023-05-20T07:47:21;8.60;;;4.75;;
32096;SDS011;18610;49.916;8.284;2023-05-20T07:49:47;8.85;;;5.38;;
32096;SDS011;18610;49.916;8.284;2023-05-20T07:52:14;6.55;;;4.63;;
32096;SDS011;18610;49.916;8.284;2023-05-20T07:54:41;7.22;;;5.35;;
32096;SDS011;18610;49.916;8.284;2023-05-20T07:57:08;8.82;;;4.75;;
32096;SDS011;18610;49.916;8.284;2023-05-20T07:59:36;10.82;;;5.43;;
32096;SDS011;18610;49.916;8.284;2023-05-20T08:02:02;13.55;;;5.88;;
32096;SDS011;18610;49.916;8.284;2023-05-20T08:04:30;7.47;;;5.43;;
32096;SDS011;18610;49.916;8.284;2023-05-20T08:06:56;11.23;;;5.90;;
32096;SDS011;18610;49.916;8.284;2023-05-20T08:09:23;11.68;;;6.32;;
32096;SDS011;18610;49.916;8.284;2023-05-20T08:11:50;17.73;;;5.85;;
32096;SDS011;18610;49.916;8.284;2023-05-20T08:14:16;12.50;;;6.40;;
32096;SDS011;18610;49.916;8.284;2023-05-20T08:16:45;10.25;;;6.03;;
32096;SDS011;18610;49.916;8.284;2023-05-20T08:19:11;9.57;;;5.78;;
32096;SDS011;18610;49.916;8.284;2023-05-20T08:21:38;8.93;;;6.28;;
32096;SDS011;18610;49.916;8.284;2023-05-20T08:24:05;9.55;;;5.70;;
32096;SDS011;18610;49.916;8.284;2023-05-20T08:26:32;14.75;;;6.03;;
32096;SDS011;18610;49.916;8.284;2023-05-20T08:28:58;10.13;;;5.38;;
32096;SDS011;18610;49.916;8.284;2023-05-20T08:31:25;11.77;;;6.80;;
32096;SDS011;18610;49.916;8.284;2023-05-20T08:33:53;12.98;;;6.03;;
32096;SDS011;18610;49.916;8.284;2023-05-20T08:36:20;14.90;;;5.50;;
32096;SDS011;18610;49.916;8.284;2023-05-20T08:38:47;11.20;;;6.47;;
32096;SDS011;18610;49.916;8.284;2023-05-20T08:41:14;13.50;;;6.25;;
32096;SDS011;18610;49.916;8.284;2023-05-20T08:43:41;7.43;;;5.45;;
32096;SDS011;18610;49.916;8.284;2023-05-20T08:46:08;12.48;;;6.47;;
32096;SDS011;18610;49.916;8.284;2023-05-20T08:48:35;9.07;;;6.07;;
32096;SDS011;18610;49.916;8.284;2023-05-20T08:51:04;7.05;;;4.85;;
32096;SDS011;18610;49.916;8.284;2023-05-20T08:53:33;11.65;;;5.00;;
32096;SDS011;18610;49.916;8.284;2023-05-20T08:55:59;10.90;;;6.10;;
32096;SDS011;18610;49.916;8.284;2023-05-20T08:58:27;7.05;;;5.85;;
32096;SDS011;18610;49.916;8.284;2023-05-20T09:00:54;16.05;;;7.50;;
32096;SDS011;18610;49.916;8.284;2023-05-20T09:03:21;14.30;;;6.53;;
32096;SDS011;18610;49.916;8.284;2023-05-20T09:05:48;10.15;;;6.25;;
32096;SDS011;18610;49.916;8.284;2023-05-20T09:08:16;9.27;;;5.57;;
32096;SDS011;18610;49.916;8.284;2023-05-20T09:10:43;9.57;;;6.03;;
32096;SDS011;18610;49.916;8.284;2023-05-20T09:13:10;9.95;;;6.10;;
32096;SDS011;18610;49.916;8.284;2023-05-20T09:15:36;13.95;;;6.80;;
32096;SDS011;18610;49.916;8.284;2023-05-20T09:18:05;9.50;;;6.65;;
32096;SDS011;18610;49.916;8.284;2023-05-20T09:20:33;8.32;;;5.70;;
32096;SDS011;18610;49.916;8.284;2023-05-20T09:23:02;10.25;;;5.50;;
32096;SDS011;18610;49.916;8.284;2023-05-20T09:25:32;13.40;;;7.30;;
32096;SDS011;18610;49.916;8.284;2023-05-20T09:28:00;11.43;;;5.40;;
32096;SDS011;18610;49.916;8.284;2023-05-20T09:30:27;10.38;;;6.38;;
32096;SDS011;18610;49.916;8.284;2023-05-20T09:32:54;9.20;;;5.57;;
32096;SDS011;18610;49.916;8.284;2023-05-20T09:35:22;13.15;;;6.78;;
32096;SDS011;18610;49.916;8.284;2023-05-20T09:37:50;11.43;;;5.88;;
32096;SDS011;18610;49.916;8.284;2023-05-20T09:40:19;15.00;;;6.10;;
32096;SDS011;18610;49.916;8.284;2023-05-20T09:42:51;7.75;;;6.00;;
32096;SDS011;18610;49.916;8.284;2023-05-20T09:45:19;10.02;;;6.50;;
32096;SDS011;18610;49.916;8.284;2023-05-20T09:47:48;9.40;;;6.88;;
32096;SDS011;18610;49.916;8.284;2023-05-20T09:50:15;14.35;;;5.90;;
32096;SDS011;18610;49.916;8.284;2023-05-20T09:52:45;14.07;;;6.88;;
32096;SDS011;18610;49.916;8.284;2023-05-20T09:55:13;13.10;;;6.18;;
32096;SDS011;18610;49.916;8.284;2023-05-20T09:57:41;9.57;;;6.05;;
32096;SDS011;18610;49.916;8.284;2023-05-20T10:00:10;13.10;;;5.82;;
32096;SDS011;18610;49.916;8.284;2023-05-20T10:02:40;10.18;;;6.50;;
32096;SDS011;18610;49.916;8.284;2023-05-20T10:05:10;20.02;;;7.05;;
32096;SDS011;18610;49.916;8.284;2023-05-20T10:10:58;10.57;;;7.18;;
32096;SDS011;18610;49.916;8.284;2023-05-20T10:13:48;9.50;;;5.55;;
32096;SDS011;18610;49.916;8.284;2023-05-20T10:16:28;8.65;;;5.70;;
32096;SDS011;18610;49.916;8.284;2023-05-20T10:19:02;23.58;;;6.18;;
32096;SDS011;18610;49.916;8.284;2023-05-20T10:21:36;18.65;;;7.47;;
32096;SDS011;18610;49.916;8.284;2023-05-20T10:24:06;11.93;;;6.57;;
32096;SDS011;18610;49.916;8.284;2023-05-20T10:26:34;17.30;;;7.03;;
32096;SDS011;18610;49.916;8.284;2023-05-20T10:29:01;11.27;;;6.43;;
32096;SDS011;18610;49.916;8.284;2023-05-20T10:31:44;10.07;;;6.15;;
32096;SDS011;18610;49.916;8.284;2023-05-20T10:34:13;8.57;;;5.88;;
32096;SDS011;18610;49.916;8.284;2023-05-20T10:36:44;10.65;;;6.10;;
32096;SDS011;18610;49.916;8.284;2023-05-20T10:39:14;8.55;;;5.85;;
32096;SDS011;18610;49.916;8.284;2023-05-20T10:41:41;9.85;;;6.40;;
32096;SDS011;18610;49.916;8.284;2023-05-20T10:44:08;8.38;;;5.35;;
32096;SDS011;18610;49.916;8.284;2023-05-20T10:46:35;8.02;;;6.18;;
32096;SDS011;18610;49.916;8.284;2023-05-20T10:49:04;13.20;;;7.05;;
32096;SDS011;18610;49.916;8.284;2023-05-20T10:51:42;14.65;;;6.15;;
32096;SDS011;18610;49.916;8.284;2023-05-20T10:54:11;13.13;;;6.55;;
32096;SDS011;18610;49.916;8.284;2023-05-20T10:56:39;9.90;;;6.32;;
32096;SDS011;18610;49.916;8.284;2023-05-20T10:59:15;14.45;;;6.03;;
32096;SDS011;18610;49.916;8.284;2023-05-20T11:01:42;7.63;;;5.80;;
32096;SDS011;18610;49.916;8.284;2023-05-20T11:04:10;12.20;;;6.32;;
32096;SDS011;18610;49.916;8.284;2023-05-20T11:06:38;8.75;;;5.57;;
32096;SDS011;18610;49.916;8.284;2023-05-20T11:09:15;6.68;;;5.95;;
32096;SDS011;18610;49.916;8.284;2023-05-20T11:11:42;9.60;;;6.45;;
32096;SDS011;18610;49.916;8.284;2023-05-20T11:14:09;11.90;;;6.50;;
32096;SDS011;18610;49.916;8.284;2023-05-20T11:16:37;7.75;;;6.13;;
32096;SDS011;18610;49.916;8.284;2023-05-20T11:19:05;11.07;;;6.60;;
32096;SDS011;18610;49.916;8.284;2023-05-20T11:21:33;10.50;;;6.68;;
32096;SDS011;18610;49.916;8.284;2023-05-20T11:24:07;8.93;;;6.43;;
32096;SDS011;18610;49.916;8.284;2023-05-20T11:26:34;12.73;;;7.13;;
32096;SDS011;18610;49.916;8.284;2023-05-20T11:29:01;8.20;;;5.15;;
32096;SDS011;18610;49.916;8.284;2023-05-20T11:31:28;13.77;;;7.22;;
32096;SDS011;18610;49.916;8.284;2023-05-20T11:33:55;10.15;;;6.55;;
32096;SDS011;18610;49.916;8.284;2023-05-20T11:36:25;9.30;;;6.15;;
32096;SDS011;18610;49.916;8.284;2023-05-20T11:38:54;15.35;;;6.50;;
32096;SDS011;18610;49.916;8.284;2023-05-20T11:41:23;9.07;;;5.93;;
32096;SDS011;18610;49.916;8.284;2023-05-20T11:43:54;11.07;;;6.75;;
32096;SDS011;18610;49.916;8.284;2023-05-20T11:46:22;9.68;;;6.35;;
32096;SDS011;18610;49.916;8.284;2023-05-20T11:48:52;14.45;;;6.20;;
32096;SDS011;18610;49.916;8.284;2023-05-20T11:53:50;9.85;;;6.50;;
32096;SDS011;18610;49.916;8.284;2023-05-20T11:56:18;9.30;;;6.00;;
32096;SDS011;18610;49.916;8.284;2023-05-20T11:58:46;11.00;;;6.65;;
32096;SDS011;18610;49.916;8.284;2023-05-20T12:01:13;27.27;;;9.60;;
32096;SDS011;18610;49.916;8.284;2023-05-20T12:03:40;8.65;;;7.22;;
32096;SDS011;18610;49.916;8.284;2023-05-20T12:06:06;10.13;;;6.32;;
32096;SDS011;18610;49.916;8.284;2023-05-20T12:08:36;11.32;;;7.13;;
32096;SDS011;18610;49.916;8.284;2023-05-20T12:11:03;13.98;;;7.82;;
32096;SDS011;18610;49.916;8.284;2023-05-20T12:13:31;8.35;;;6.70;;
32096;SDS011;18610;49.916;8.284;2023-05-20T12:15:58;8.85;;;5.30;;
32096;SDS011;18610;49.916;8.284;2023-05-20T12:18:24;19.67;;;6.38;;
32096;SDS011;18610;49.916;8.284;2023-05-20T12:20:51;22.42;;;7.68;;
32096;SDS011;18610;49.916;8.284;2023-05-20T12:23:18;13.38;;;5.90;;
32096;SDS011;18610;49.916;8.284;2023-05-20T12:25:45;13.38;;;6.93;;
32096;SDS011;18610;49.916;8.284;2023-05-20T12:28:13;11.20;;;5.57;;
32096;SDS011;18610;49.916;8.284;2023-05-20T12:30:42;23.02;;;6.47;;
32096;SDS011;18610;49.916;8.284;2023-05-20T12:33:09;23.67;;;6.30;;
32096;SDS011;18610;49.916;8.284;2023-05-20T12:35:36;15.30;;;6.43;;
32096;SDS011;18610;49.916;8.284;2023-05-20T12:38:03;7.95;;;5.13;;
32096;SDS011;18610;49.916;8.284;2023-05-20T12:40:30;22.77;;;6.68;;
32096;SDS011;18610;49.916;8.284;2023-05-20T12:42:59;8.65;;;5.50;;
32096;SDS011;18610;49.916;8.284;2023-05-20T12:45:26;45.70;;;7.15;;
32096;SDS011;18610;49.916;8.284;2023-05-20T12:47:54;7.68;;;5.38;;
32096;SDS011;18610;49.916;8.284;2023-05-20T12:50:22;10.43;;;5.57;;
32096;SDS011;18610;49.916;8.284;2023-05-20T12:52:49;16.17;;;6.38;;
32096;SDS011;18610;49.916;8.284;2023-05-20T12:55:16;10.95;;;5.32;;
32096;SDS011;18610;49.916;8.284;2023-05-20T12:57:43;14.73;;;6.40;;
32096;SDS011;18610;49.916;8.284;2023-05-20T13:00:11;21.63;;;7.45;;
32096;SDS011;18610;49.916;8.284;2023-05-20T13:02:39;13.25;;;6.05;;
32096;SDS011;18610;49.916;8.284;2023-05-20T13:05:09;9.70;;;6.63;;
32096;SDS011;18610;49.916;8.284;2023-05-20T13:07:36;25.50;;;6.82;;
32096;SDS011;18610;49.916;8.284;2023-05-20T13:10:03;10.85;;;6.30;;
32096;SDS011;18610;49.916;8.284;2023-05-20T13:12:31;8.98;;;6.13;;
32096;SDS011;18610;49.916;8.284;2023-05-20T13:14:58;7.45;;;6.45;;
32096;SDS011;18610;49.916;8.284;2023-05-20T13:17:25;16.55;;;6.60;;
32096;SDS011;18610;49.916;8.284;2023-05-20T13:19:52;14.10;;;6.30;;
32096;SDS011;18610;49.916;8.284;2023-05-20T13:22:21;8.90;;;5.78;;
32096;SDS011;18610;49.916;8.284;2023-05-20T13:24:47;15.13;;;6.03;;
32096;SDS011;18610;49.916;8.284;2023-05-20T13:27:14;34.63;;;6.60;;
32096;SDS011;18610;49.916;8.284;2023-05-20T13:29:41;58.88;;;9.13;;
32096;SDS011;18610;49.916;8.284;2023-05-20T13:32:08;16.98;;;5.80;;
32096;SDS011;18610;49.916;8.284;2023-05-20T13:34:35;15.43;;;6.53;;
32096;SDS011;18610;49.916;8.284;2023-05-20T13:37:02;15.02;;;6.88;;
32096;SDS011;18610;49.916;8.284;2023-05-20T13:39:30;13.55;;;7.28;;
32096;SDS011;18610;49.916;8.284;2023-05-20T13:41:57;9.68;;;6.10;;
32096;SDS011;18610;49.916;8.284;2023-05-20T13:44:24;12.27;;;7.00;;
32096;SDS011;18610;49.916;8.284;2023-05-20T13:46:51;9.00;;;6.65;;
32096;SDS011;18610;49.916;8.284;2023-05-20T13:49:17;15.40;;;6.45;;
32096;SDS011;18610;49.916;8.284;2023-05-20T13:51:44;10.73;;;7.47;;
32096;SDS011;18610;49.916;8.284;2023-05-20T13:54:11;12.25;;;7.00;;
32096;SDS011;18610;49.916;8.284;2023-05-20T13:56:39;7.03;;;5.57;;
32096;SDS011;18610;49.916;8.284;2023-05-20T13:59:06;12.48;;;6.30;;
32096;SDS011;18610;49.916;8.284;2023-05-20T14:01:33;16.13;;;6.70;;
32096;SDS011;18610;49.916;8.284;2023-05-20T14:04:00;8.65;;;6.65;;
32096;SDS011;18610;49.916;8.284;2023-05-20T14:06:27;13.65;;;6.80;;
32096;SDS011;18610;49.916;8.284;2023-05-20T14:08:56;8.13;;;6.50;;
32096;SDS011;18610;49.916;8.284;2023-05-20T14:11:22;10.18;;;7.03;;
32096;SDS011;18610;49.916;8.284;2023-05-20T14:13:50;8.50;;;6.63;;
32096;SDS011;18610;49.916;8.284;2023-05-20T14:16:17;15.98;;;8.20;;
32096;SDS011;18610;49.916;8.284;2023-05-20T14:18:44;13.32;;;6.95;;
32096;SDS011;18610;49.916;8.284;2023-05-20T14:21:11;22.30;;;8.10;;
32096;SDS011;18610;49.916;8.284;2023-05-20T14:23:37;15.63;;;7.45;;
32096;SDS011;18610;49.916;8.284;2023-05-20T14:26:04;9.27;;;7.53;;
32096;SDS011;18610;49.916;8.284;2023-05-20T14:28:31;11.77;;;6.90;;
32096;SDS011;18610;49.916;8.284;2023-05-20T14:30:59;8.98;;;6.80;;
32096;SDS011;18610;49.916;8.284;2023-05-20T14:33:26;10.18;;;6.95;;
32096;SDS011;18610;49.916;8.284;2023-05-20T14:35:53;14.25;;;5.60;;
32096;SDS011;18610;49.916;8.284;2023-05-20T14:38:20;12.48;;;7.28;;
32096;SDS011;18610;49.916;8.284;2023-05-20T14:40:46;13.02;;;7.25;;
32096;SDS011;18610;49.916;8.284;2023-05-20T14:43:13;10.05;;;6.28;;
32096;SDS011;18610;49.916;8.284;2023-05-20T14:45:40;12.60;;;7.45;;
32096;SDS011;18610;49.916;8.284;2023-05-20T14:48:08;9.95;;;6.78;;
32096;SDS011;18610;49.916;8.284;2023-05-20T14:50:35;12.73;;;7.78;;